sensor_id;sensor_type;location;lat;lon;timestamp;temperature;humidity
27004;DHT22;14546;47.590;19.022;2024-03-22T00:01:47;11.50;66.40
27004;DHT22;14546;47.590;19.022;2024-03-22T00:04:13;11.60;66.40
27004;DHT22;14546;47.590;19.022;2024-03-22T00:06:43;11.60;66.40
27004;DHT22;14546;47.590;19.022;2024-03-22T00:09:12;11.70;66.20
27004;DHT22;14546;47.590;19.022;2024-03-22T00:11:42;11.70;66.10
27004;DHT22;14546;47.590;19.022;2024-03-22T00:14:08;11.60;66.00
27004;DHT22;14546;47.590;19.022;2024-03-22T00:16:35;11.60;66.70
27004;DHT22;14546;47.590;19.022;2024-03-22T00:19:02;11.60;65.80
27004;DHT22;14546;47.590;19.022;2024-03-22T00:21:28;11.70;65.90
27004;DHT22;14546;47.590;19.022;2024-03-22T00:23:56;11.60;65.80
27004;DHT22;14546;47.590;19.022;2024-03-22T00:26:22;11.70;65.90
27004;DHT22;14546;47.590;19.022;2024-03-22T00:28:47;11.60;65.80
27004;DHT22;14546;47.590;19.022;2024-03-22T00:31:14;11.60;65.90
27004;DHT22;14546;47.590;19.022;2024-03-22T00:33:40;11.60;65.90
27004;DHT22;14546;47.590;19.022;2024-03-22T00:36:06;11.60;66.00
27004;DHT22;14546;47.590;19.022;2024-03-22T00:38:31;11.60;66.00
27004;DHT22;14546;47.590;19.022;2024-03-22T00:40:58;11.60;66.00
27004;DHT22;14546;47.590;19.022;2024-03-22T00:43:24;11.60;65.90
27004;DHT22;14546;47.590;19.022;2024-03-22T00:45:50;11.60;65.80
27004;DHT22;14546;47.590;19.022;2024-03-22T00:48:16;11.70;66.00
27004;DHT22;14546;47.590;19.022;2024-03-22T00:50:41;11.60;66.10
27004;DHT22;14546;47.590;19.022;2024-03-22T00:53:07;11.70;66.30
27004;DHT22;14546;47.590;19.022;2024-03-22T00:55:54;11.70;66.30
27004;DHT22;14546;47.590;19.022;2024-03-22T00:58:21;11.60;66.20
27004;DHT22;14546;47.590;19.022;2024-03-22T01:00:47;11.60;66.30
27004;DHT22;14546;47.590;19.022;2024-03-22T01:03:13;11.60;66.40
27004;DHT22;14546;47.590;19.022;2024-03-22T01:05:39;11.60;66.70
27004;DHT22;14546;47.590;19.022;2024-03-22T01:08:06;11.60;66.80
27004;DHT22;14546;47.590;19.022;2024-03-22T01:10:33;11.50;66.90
27004;DHT22;14546;47.590;19.022;2024-03-22T01:13:00;11.50;67.10
27004;DHT22;14546;47.590;19.022;2024-03-22T01:15:26;11.50;67.30
27004;DHT22;14546;47.590;19.022;2024-03-22T01:17:53;11.50;67.40
27004;DHT22;14546;47.590;19.022;2024-03-22T01:20:19;11.40;67.40
27004;DHT22;14546;47.590;19.022;2024-03-22T01:22:45;11.40;67.30
27004;DHT22;14546;47.590;19.022;2024-03-22T01:25:11;11.40;67.30
27004;DHT22;14546;47.590;19.022;2024-03-22T01:27:39;11.30;67.30
27004;DHT22;14546;47.590;19.022;2024-03-22T01:30:05;11.30;67.40
27004;DHT22;14546;47.590;19.022;2024-03-22T01:32:32;11.30;67.40
27004;DHT22;14546;47.590;19.022;2024-03-22T01:34:58;11.30;67.40
27004;DHT22;14546;47.590;19.022;2024-03-22T01:37:24;11.30;67.50
27004;DHT22;14546;47.590;19.022;2024-03-22T01:39:50;11.30;67.50
27004;DHT22;14546;47.590;19.022;2024-03-22T01:42:16;11.30;67.50
27004;DHT22;14546;47.590;19.022;2024-03-22T01:44:42;11.30;67.60
27004;DHT22;14546;47.590;19.022;2024-03-22T01:47:08;11.30;67.60
27004;DHT22;14546;47.590;19.022;2024-03-22T01:49:34;11.30;67.80
27004;DHT22;14546;47.590;19.022;2024-03-22T01:52:01;11.30;67.90
27004;DHT22;14546;47.590;19.022;2024-03-22T01:54:29;11.30;68.00
27004;DHT22;14546;47.590;19.022;2024-03-22T01:56:56;11.30;68.00
27004;DHT22;14546;47.590;19.022;2024-03-22T01:59:22;11.30;68.20
27004;DHT22;14546;47.590;19.022;2024-03-22T02:01:49;11.30;68.30
27004;DHT22;14546;47.590;19.022;2024-03-22T02:04:15;11.30;68.50
27004;DHT22;14546;47.590;19.022;2024-03-22T02:06:41;11.20;68.60
27004;DHT22;14546;47.590;19.022;2024-03-22T02:09:07;11.20;68.70
27004;DHT22;14546;47.590;19.022;2024-03-22T02:11:36;11.20;68.90
27004;DHT22;14546;47.590;19.022;2024-03-22T02:14:03;11.20;69.10
27004;DHT22;14546;47.590;19.022;2024-03-22T02:16:30;11.20;69.20
27004;DHT22;14546;47.590;19.022;2024-03-22T02:18:55;11.10;69.10
27004;DHT22;14546;47.590;19.022;2024-03-22T02:21:22;11.10;69.30
27004;DHT22;14546;47.590;19.022;2024-03-22T02:23:48;11.10;69.40
27004;DHT22;14546;47.590;19.022;2024-03-22T02:26:14;11.10;69.30
27004;DHT22;14546;47.590;19.022;2024-03-22T02:28:40;11.20;69.30
27004;DHT22;14546;47.590;19.022;2024-03-22T02:31:06;11.20;69.10
27004;DHT22;14546;47.590;19.022;2024-03-22T02:33:31;11.30;69.00
27004;DHT22;14546;47.590;19.022;2024-03-22T02:35:57;11.30;68.80
27004;DHT22;14546;47.590;19.022;2024-03-22T02:38:23;11.30;68.70
27004;DHT22;14546;47.590;19.022;2024-03-22T02:40:52;11.40;68.60
27004;DHT22;14546;47.590;19.022;2024-03-22T02:43:18;11.40;68.60
27004;DHT22;14546;47.590;19.022;2024-03-22T02:45:44;11.40;68.40
27004;DHT22;14546;47.590;19.022;2024-03-22T02:48:10;11.50;69.10
27004;DHT22;14546;47.590;19.022;2024-03-22T02:50:36;11.50;68.30
27004;DHT22;14546;47.590;19.022;2024-03-22T02:53:04;11.50;68.20
27004;DHT22;14546;47.590;19.022;2024-03-22T02:55:35;11.60;68.10
27004;DHT22;14546;47.590;19.022;2024-03-22T02:58:01;11.60;68.00
27004;DHT22;14546;47.590;19.022;2024-03-22T03:00:28;11.60;67.90
27004;DHT22;14546;47.590;19.022;2024-03-22T03:02:53;11.60;67.80
27004;DHT22;14546;47.590;19.022;2024-03-22T03:05:19;11.60;67.80
27004;DHT22;14546;47.590;19.022;2024-03-22T03:07:45;11.60;67.80
27004;DHT22;14546;47.590;19.022;2024-03-22T03:10:13;11.70;67.90
27004;DHT22;14546;47.590;19.022;2024-03-22T03:12:39;11.60;68.60
27004;DHT22;14546;47.590;19.022;2024-03-22T03:15:05;11.60;67.90
27004;DHT22;14546;47.590;19.022;2024-03-22T03:17:31;11.60;67.90
27004;DHT22;14546;47.590;19.022;2024-03-22T03:19:58;11.60;68.10
27004;DHT22;14546;47.590;19.022;2024-03-22T03:22:24;11.60;68.30
27004;DHT22;14546;47.590;19.022;2024-03-22T03:24:50;11.50;68.40
27004;DHT22;14546;47.590;19.022;2024-03-22T03:27:16;11.50;68.50
27004;DHT22;14546;47.590;19.022;2024-03-22T03:29:42;11.50;68.70
27004;DHT22;14546;47.590;19.022;2024-03-22T03:32:08;11.40;69.00
27004;DHT22;14546;47.590;19.022;2024-03-22T03:34:34;11.40;69.20
27004;DHT22;14546;47.590;19.022;2024-03-22T03:36:59;11.40;69.40
27004;DHT22;14546;47.590;19.022;2024-03-22T03:39:27;11.40;69.40
27004;DHT22;14546;47.590;19.022;2024-03-22T03:41:55;11.40;69.60
27004;DHT22;14546;47.590;19.022;2024-03-22T03:44:21;11.40;69.60
27004;DHT22;14546;47.590;19.022;2024-03-22T03:46:46;11.40;69.60
27004;DHT22;14546;47.590;19.022;2024-03-22T03:49:13;11.40;69.80
27004;DHT22;14546;47.590;19.022;2024-03-22T03:51:40;11.40;69.90
27004;DHT22;14546;47.590;19.022;2024-03-22T03:54:06;11.40;70.20
27004;DHT22;14546;47.590;19.022;2024-03-22T03:56:32;11.40;70.50
27004;DHT22;14546;47.590;19.022;2024-03-22T03:58:58;11.40;70.60
27004;DHT22;14546;47.590;19.022;2024-03-22T04:01:24;11.40;70.70
27004;DHT22;14546;47.590;19.022;2024-03-22T04:03:50;11.40;71.30
27004;DHT22;14546;47.590;19.022;2024-03-22T04:06:15;11.50;71.30
27004;DHT22;14546;47.590;19.022;2024-03-22T04:08:42;11.50;71.40
27004;DHT22;14546;47.590;19.022;2024-03-22T04:11:07;11.50;71.60
27004;DHT22;14546;47.590;19.022;2024-03-22T04:13:33;11.50;72.00
27004;DHT22;14546;47.590;19.022;2024-03-22T04:16:01;11.50;72.10
27004;DHT22;14546;47.590;19.022;2024-03-22T04:18:28;11.50;72.70
27004;DHT22;14546;47.590;19.022;2024-03-22T04:20:55;11.50;73.00
27004;DHT22;14546;47.590;19.022;2024-03-22T04:23:21;11.50;73.50
27004;DHT22;14546;47.590;19.022;2024-03-22T04:25:58;11.50;73.90
27004;DHT22;14546;47.590;19.022;2024-03-22T04:28:28;11.50;75.00
27004;DHT22;14546;47.590;19.022;2024-03-22T04:31:09;11.50;74.50
27004;DHT22;14546;47.590;19.022;2024-03-22T04:33:36;11.50;74.70
27004;DHT22;14546;47.590;19.022;2024-03-22T04:36:02;11.50;74.50
27004;DHT22;14546;47.590;19.022;2024-03-22T04:38:29;11.40;74.50
27004;DHT22;14546;47.590;19.022;2024-03-22T04:40:56;11.50;74.60
27004;DHT22;14546;47.590;19.022;2024-03-22T04:43:23;11.40;74.50
27004;DHT22;14546;47.590;19.022;2024-03-22T04:45:49;11.40;74.50
27004;DHT22;14546;47.590;19.022;2024-03-22T04:48:18;11.40;74.50
27004;DHT22;14546;47.590;19.022;2024-03-22T04:50:45;11.40;74.70
27004;DHT22;14546;47.590;19.022;2024-03-22T04:53:12;11.40;74.60
27004;DHT22;14546;47.590;19.022;2024-03-22T04:55:37;11.30;74.70
27004;DHT22;14546;47.590;19.022;2024-03-22T04:58:04;11.30;74.70
27004;DHT22;14546;47.590;19.022;2024-03-22T05:00:33;11.30;74.90
27004;DHT22;14546;47.590;19.022;2024-03-22T05:02:59;11.30;75.00
27004;DHT22;14546;47.590;19.022;2024-03-22T05:05:26;11.30;75.20
27004;DHT22;14546;47.590;19.022;2024-03-22T05:07:53;11.20;75.40
27004;DHT22;14546;47.590;19.022;2024-03-22T05:10:19;11.20;75.70
27004;DHT22;14546;47.590;19.022;2024-03-22T05:12:45;11.20;76.00
27004;DHT22;14546;47.590;19.022;2024-03-22T05:15:11;11.20;76.10
27004;DHT22;14546;47.590;19.022;2024-03-22T05:17:37;11.20;76.30
27004;DHT22;14546;47.590;19.022;2024-03-22T05:20:05;11.20;76.30
27004;DHT22;14546;47.590;19.022;2024-03-22T05:22:31;11.20;76.40
27004;DHT22;14546;47.590;19.022;2024-03-22T05:24:57;11.20;76.40
27004;DHT22;14546;47.590;19.022;2024-03-22T05:27:23;11.20;76.60
27004;DHT22;14546;47.590;19.022;2024-03-22T05:29:48;11.20;76.90
27004;DHT22;14546;47.590;19.022;2024-03-22T05:32:14;11.20;77.00
27004;DHT22;14546;47.590;19.022;2024-03-22T05:34:40;11.20;77.10
27004;DHT22;14546;47.590;19.022;2024-03-22T05:37:05;11.20;77.40
27004;DHT22;14546;47.590;19.022;2024-03-22T05:39:31;11.20;77.40
27004;DHT22;14546;47.590;19.022;2024-03-22T05:41:57;11.20;77.40
27004;DHT22;14546;47.590;19.022;2024-03-22T05:44:22;11.20;77.50
27004;DHT22;14546;47.590;19.022;2024-03-22T05:46:52;11.30;77.70
27004;DHT22;14546;47.590;19.022;2024-03-22T05:49:17;11.30;77.70
27004;DHT22;14546;47.590;19.022;2024-03-22T05:51:43;11.30;77.80
27004;DHT22;14546;47.590;19.022;2024-03-22T05:54:10;11.30;77.90
27004;DHT22;14546;47.590;19.022;2024-03-22T05:56:36;11.30;78.00
27004;DHT22;14546;47.590;19.022;2024-03-22T05:59:01;11.30;78.20
27004;DHT22;14546;47.590;19.022;2024-03-22T06:01:27;11.40;78.20
27004;DHT22;14546;47.590;19.022;2024-03-22T06:03:53;11.40;78.30
27004;DHT22;14546;47.590;19.022;2024-03-22T06:06:19;11.40;78.60
27004;DHT22;14546;47.590;19.022;2024-03-22T06:08:48;11.40;78.60
27004;DHT22;14546;47.590;19.022;2024-03-22T06:11:19;11.40;78.70
27004;DHT22;14546;47.590;19.022;2024-03-22T06:13:45;11.40;78.90
27004;DHT22;14546;47.590;19.022;2024-03-22T06:16:11;11.40;79.10
27004;DHT22;14546;47.590;19.022;2024-03-22T06:18:37;11.40;79.20
27004;DHT22;14546;47.590;19.022;2024-03-22T06:21:03;11.50;79.30
27004;DHT22;14546;47.590;19.022;2024-03-22T06:23:32;11.50;79.30
27004;DHT22;14546;47.590;19.022;2024-03-22T06:25:57;11.50;79.30
27004;DHT22;14546;47.590;19.022;2024-03-22T06:28:25;11.60;79.40
27004;DHT22;14546;47.590;19.022;2024-03-22T06:30:52;11.60;79.40
27004;DHT22;14546;47.590;19.022;2024-03-22T06:33:18;11.60;79.30
27004;DHT22;14546;47.590;19.022;2024-03-22T06:35:44;11.70;79.30
27004;DHT22;14546;47.590;19.022;2024-03-22T06:38:12;11.80;79.30
27004;DHT22;14546;47.590;19.022;2024-03-22T06:40:38;11.80;79.20
27004;DHT22;14546;47.590;19.022;2024-03-22T06:43:04;11.90;79.10
27004;DHT22;14546;47.590;19.022;2024-03-22T06:45:29;12.00;79.10
27004;DHT22;14546;47.590;19.022;2024-03-22T06:47:55;12.00;79.00
27004;DHT22;14546;47.590;19.022;2024-03-22T06:50:21;12.10;78.90
27004;DHT22;14546;47.590;19.022;2024-03-22T06:52:53;12.10;78.60
27004;DHT22;14546;47.590;19.022;2024-03-22T06:55:20;12.20;78.40
27004;DHT22;14546;47.590;19.022;2024-03-22T06:57:47;12.20;78.20
27004;DHT22;14546;47.590;19.022;2024-03-22T07:00:13;12.30;78.10
27004;DHT22;14546;47.590;19.022;2024-03-22T07:02:40;12.30;78.10
27004;DHT22;14546;47.590;19.022;2024-03-22T07:05:07;12.40;78.00
27004;DHT22;14546;47.590;19.022;2024-03-22T07:07:34;12.50;77.80
27004;DHT22;14546;47.590;19.022;2024-03-22T07:10:00;12.50;77.40
27004;DHT22;14546;47.590;19.022;2024-03-22T07:12:26;12.60;77.30
27004;DHT22;14546;47.590;19.022;2024-03-22T07:14:52;12.60;76.90
27004;DHT22;14546;47.590;19.022;2024-03-22T07:17:18;12.70;76.80
27004;DHT22;14546;47.590;19.022;2024-03-22T07:19:50;12.70;76.70
27004;DHT22;14546;47.590;19.022;2024-03-22T07:22:19;12.80;76.70
27004;DHT22;14546;47.590;19.022;2024-03-22T07:24:45;12.80;76.40
27004;DHT22;14546;47.590;19.022;2024-03-22T07:27:11;12.90;76.30
27004;DHT22;14546;47.590;19.022;2024-03-22T07:29:37;12.90;76.20
27004;DHT22;14546;47.590;19.022;2024-03-22T07:32:03;12.90;76.10
27004;DHT22;14546;47.590;19.022;2024-03-22T07:34:29;12.90;76.20
27004;DHT22;14546;47.590;19.022;2024-03-22T07:36:54;12.90;76.10
27004;DHT22;14546;47.590;19.022;2024-03-22T07:39:20;13.00;76.20
27004;DHT22;14546;47.590;19.022;2024-03-22T07:41:46;13.00;76.00
27004;DHT22;14546;47.590;19.022;2024-03-22T07:44:11;13.00;75.70
27004;DHT22;14546;47.590;19.022;2024-03-22T07:46:37;13.10;75.70
27004;DHT22;14546;47.590;19.022;2024-03-22T07:49:03;13.10;75.60
27004;DHT22;14546;47.590;19.022;2024-03-22T07:51:30;13.20;75.50
27004;DHT22;14546;47.590;19.022;2024-03-22T07:53:55;13.20;75.40
27004;DHT22;14546;47.590;19.022;2024-03-22T07:56:21;13.30;75.20
27004;DHT22;14546;47.590;19.022;2024-03-22T07:58:47;13.30;75.10
27004;DHT22;14546;47.590;19.022;2024-03-22T08:01:13;13.30;75.00
27004;DHT22;14546;47.590;19.022;2024-03-22T08:03:38;13.40;75.70
27004;DHT22;14546;47.590;19.022;2024-03-22T08:06:04;13.40;74.60
27004;DHT22;14546;47.590;19.022;2024-03-22T08:08:30;13.40;74.50
27004;DHT22;14546;47.590;19.022;2024-03-22T08:10:56;13.40;74.40
27004;DHT22;14546;47.590;19.022;2024-03-22T08:13:21;13.50;74.50
27004;DHT22;14546;47.590;19.022;2024-03-22T08:15:47;13.60;74.50
27004;DHT22;14546;47.590;19.022;2024-03-22T08:18:13;13.50;74.30
27004;DHT22;14546;47.590;19.022;2024-03-22T08:20:38;13.60;74.50
27004;DHT22;14546;47.590;19.022;2024-03-22T08:23:05;13.60;74.30
27004;DHT22;14546;47.590;19.022;2024-03-22T08:25:31;13.70;74.20
27004;DHT22;14546;47.590;19.022;2024-03-22T08:27:57;13.80;74.20
27004;DHT22;14546;47.590;19.022;2024-03-22T08:30:24;13.90;74.10
27004;DHT22;14546;47.590;19.022;2024-03-22T08:32:50;14.00;74.00
27004;DHT22;14546;47.590;19.022;2024-03-22T08:35:16;14.10;73.60
27004;DHT22;14546;47.590;19.022;2024-03-22T08:37:42;14.20;73.50
27004;DHT22;14546;47.590;19.022;2024-03-22T08:40:07;14.40;73.70
27004;DHT22;14546;47.590;19.022;2024-03-22T08:42:33;14.50;73.40
27004;DHT22;14546;47.590;19.022;2024-03-22T08:44:59;14.70;73.20
27004;DHT22;14546;47.590;19.022;2024-03-22T08:49:51;14.90;72.50
27004;DHT22;14546;47.590;19.022;2024-03-22T08:52:17;15.30;71.20
27004;DHT22;14546;47.590;19.022;2024-03-22T08:54:42;15.40;70.90
27004;DHT22;14546;47.590;19.022;2024-03-22T08:57:08;15.50;69.80
27004;DHT22;14546;47.590;19.022;2024-03-22T08:59:34;15.60;69.20
27004;DHT22;14546;47.590;19.022;2024-03-22T09:02:00;15.60;68.80
27004;DHT22;14546;47.590;19.022;2024-03-22T09:04:26;15.60;68.80
27004;DHT22;14546;47.590;19.022;2024-03-22T09:06:52;15.60;68.70
27004;DHT22;14546;47.590;19.022;2024-03-22T09:09:17;15.70;68.80
27004;DHT22;14546;47.590;19.022;2024-03-22T09:11:43;15.70;68.60
27004;DHT22;14546;47.590;19.022;2024-03-22T09:14:09;15.80;68.00
27004;DHT22;14546;47.590;19.022;2024-03-22T09:16:35;15.80;67.80
27004;DHT22;14546;47.590;19.022;2024-03-22T09:19:02;15.80;67.40
27004;DHT22;14546;47.590;19.022;2024-03-22T09:48:20;15.90;67.80
27004;DHT22;14546;47.590;19.022;2024-03-22T09:53:19;16.90;64.50
27004;DHT22;14546;47.590;19.022;2024-03-22T10:08:01;16.80;63.60
27004;DHT22;14546;47.590;19.022;2024-03-22T10:10:27;17.20;64.10
27004;DHT22;14546;47.590;19.022;2024-03-22T10:12:52;17.30;63.10
27004;DHT22;14546;47.590;19.022;2024-03-22T10:15:18;17.30;63.50
27004;DHT22;14546;47.590;19.022;2024-03-22T15:56:33;17.40;63.10
27004;DHT22;14546;47.590;19.022;2024-03-22T15:58:59;17.40;51.10
27004;DHT22;14546;47.590;19.022;2024-03-22T16:01:25;17.10;51.30
27004;DHT22;14546;47.590;19.022;2024-03-22T16:03:51;17.00;51.50
27004;DHT22;14546;47.590;19.022;2024-03-22T16:06:17;16.90;51.60
27004;DHT22;14546;47.590;19.022;2024-03-22T16:08:43;16.80;52.40
27004;DHT22;14546;47.590;19.022;2024-03-22T16:11:08;16.70;52.20
27004;DHT22;14546;47.590;19.022;2024-03-22T16:13:34;16.60;52.20
27004;DHT22;14546;47.590;19.022;2024-03-22T16:16:00;16.50;52.40
27004;DHT22;14546;47.590;19.022;2024-03-22T16:18:25;16.40;52.50
27004;DHT22;14546;47.590;19.022;2024-03-22T16:20:51;16.30;52.40
27004;DHT22;14546;47.590;19.022;2024-03-22T16:23:17;16.30;52.50
27004;DHT22;14546;47.590;19.022;2024-03-22T16:25:42;16.20;52.50
27004;DHT22;14546;47.590;19.022;2024-03-22T16:28:08;16.10;52.40
27004;DHT22;14546;47.590;19.022;2024-03-22T16:30:34;16.00;52.40
27004;DHT22;14546;47.590;19.022;2024-03-22T16:32:59;16.00;52.50
27004;DHT22;14546;47.590;19.022;2024-03-22T16:35:26;15.90;52.60
27004;DHT22;14546;47.590;19.022;2024-03-22T16:37:52;15.80;52.60
27004;DHT22;14546;47.590;19.022;2024-03-22T16:40:21;15.80;52.80
27004;DHT22;14546;47.590;19.022;2024-03-22T16:42:50;15.70;52.80
27004;DHT22;14546;47.590;19.022;2024-03-22T16:45:16;15.60;52.90
27004;DHT22;14546;47.590;19.022;2024-03-22T16:47:44;15.50;52.90
27004;DHT22;14546;47.590;19.022;2024-03-22T16:50:11;15.50;53.20
27004;DHT22;14546;47.590;19.022;2024-03-22T16:52:39;15.40;53.60
27004;DHT22;14546;47.590;19.022;2024-03-22T16:55:07;15.30;53.80
27004;DHT22;14546;47.590;19.022;2024-03-22T16:57:38;15.20;54.00
27004;DHT22;14546;47.590;19.022;2024-03-22T17:00:07;15.10;54.20
27004;DHT22;14546;47.590;19.022;2024-03-22T17:02:36;15.00;54.50
27004;DHT22;14546;47.590;19.022;2024-03-22T17:05:03;14.90;54.70
27004;DHT22;14546;47.590;19.022;2024-03-22T17:07:36;14.80;55.00
27004;DHT22;14546;47.590;19.022;2024-03-22T17:10:03;14.70;55.50
27004;DHT22;14546;47.590;19.022;2024-03-22T17:12:30;14.50;55.60
27004;DHT22;14546;47.590;19.022;2024-03-22T17:14:55;14.40;55.80
27004;DHT22;14546;47.590;19.022;2024-03-22T17:17:21;14.30;56.00
27004;DHT22;14546;47.590;19.022;2024-03-22T17:19:48;14.10;56.10
27004;DHT22;14546;47.590;19.022;2024-03-22T17:22:15;13.80;56.40
27004;DHT22;14546;47.590;19.022;2024-03-22T17:24:41;13.70;56.70
27004;DHT22;14546;47.590;19.022;2024-03-22T17:27:08;13.50;57.10
27004;DHT22;14546;47.590;19.022;2024-03-22T17:29:37;13.30;57.40
27004;DHT22;14546;47.590;19.022;2024-03-22T17:32:04;13.20;58.30
27004;DHT22;14546;47.590;19.022;2024-03-22T17:34:30;13.10;58.00
27004;DHT22;14546;47.590;19.022;2024-03-22T17:36:56;13.00;58.20
27004;DHT22;14546;47.590;19.022;2024-03-22T17:39:22;12.80;58.40
27004;DHT22;14546;47.590;19.022;2024-03-22T17:41:47;12.70;58.70
27004;DHT22;14546;47.590;19.022;2024-03-22T17:44:14;12.60;59.00
27004;DHT22;14546;47.590;19.022;2024-03-22T17:46:39;12.60;59.30
27004;DHT22;14546;47.590;19.022;2024-03-22T17:49:06;12.50;59.50
27004;DHT22;14546;47.590;19.022;2024-03-22T17:51:32;12.40;59.80
27004;DHT22;14546;47.590;19.022;2024-03-22T17:53:58;12.30;60.10
27004;DHT22;14546;47.590;19.022;2024-03-22T17:56:23;12.30;60.50
27004;DHT22;14546;47.590;19.022;2024-03-22T17:58:49;12.20;60.80
27004;DHT22;14546;47.590;19.022;2024-03-22T18:01:15;12.10;61.20
27004;DHT22;14546;47.590;19.022;2024-03-22T18:03:40;12.10;61.50
27004;DHT22;14546;47.590;19.022;2024-03-22T18:06:06;12.00;61.80
27004;DHT22;14546;47.590;19.022;2024-03-22T18:08:32;12.00;62.10
27004;DHT22;14546;47.590;19.022;2024-03-22T18:11:00;12.00;62.40
27004;DHT22;14546;47.590;19.022;2024-03-22T18:13:28;12.00;62.70
27004;DHT22;14546;47.590;19.022;2024-03-22T18:15:56;12.00;62.80
27004;DHT22;14546;47.590;19.022;2024-03-22T18:18:22;11.90;63.00
27004;DHT22;14546;47.590;19.022;2024-03-22T18:20:48;11.90;63.20
27004;DHT22;14546;47.590;19.022;2024-03-22T18:23:17;11.90;63.40
27004;DHT22;14546;47.590;19.022;2024-03-22T18:25:44;11.90;63.60
27004;DHT22;14546;47.590;19.022;2024-03-22T18:28:11;11.90;63.70
27004;DHT22;14546;47.590;19.022;2024-03-22T18:30:37;11.80;63.80
27004;DHT22;14546;47.590;19.022;2024-03-22T18:33:03;11.80;64.10
27004;DHT22;14546;47.590;19.022;2024-03-22T18:35:28;11.80;64.10
27004;DHT22;14546;47.590;19.022;2024-03-22T18:37:55;11.80;64.30
27004;DHT22;14546;47.590;19.022;2024-03-22T18:40:21;11.70;64.40
27004;DHT22;14546;47.590;19.022;2024-03-22T18:42:46;11.70;64.50
27004;DHT22;14546;47.590;19.022;2024-03-22T18:45:12;11.60;64.70
27004;DHT22;14546;47.590;19.022;2024-03-22T18:47:38;11.60;65.00
27004;DHT22;14546;47.590;19.022;2024-03-22T18:50:05;11.60;65.20
27004;DHT22;14546;47.590;19.022;2024-03-22T18:52:35;11.50;65.30
27004;DHT22;14546;47.590;19.022;2024-03-22T18:55:03;11.50;65.50
27004;DHT22;14546;47.590;19.022;2024-03-22T18:57:29;11.40;65.70
27004;DHT22;14546;47.590;19.022;2024-03-22T18:59:54;11.40;65.80
27004;DHT22;14546;47.590;19.022;2024-03-22T19:02:20;11.40;66.00
27004;DHT22;14546;47.590;19.022;2024-03-22T19:04:46;11.30;66.00
27004;DHT22;14546;47.590;19.022;2024-03-22T19:07:12;11.30;66.20
27004;DHT22;14546;47.590;19.022;2024-03-22T19:09:38;11.30;66.40
27004;DHT22;14546;47.590;19.022;2024-03-22T19:12:04;11.20;66.40
27004;DHT22;14546;47.590;19.022;2024-03-22T19:14:34;11.20;66.40
27004;DHT22;14546;47.590;19.022;2024-03-22T19:17:00;11.20;66.60
27004;DHT22;14546;47.590;19.022;2024-03-22T19:19:45;11.10;66.60
27004;DHT22;14546;47.590;19.022;2024-03-22T19:22:11;11.10;66.60
27004;DHT22;14546;47.590;19.022;2024-03-22T19:24:38;11.10;66.70
27004;DHT22;14546;47.590;19.022;2024-03-22T19:27:04;11.00;66.80
27004;DHT22;14546;47.590;19.022;2024-03-22T19:29:30;10.90;67.00
27004;DHT22;14546;47.590;19.022;2024-03-22T19:31:56;10.90;67.20
27004;DHT22;14546;47.590;19.022;2024-03-22T19:34:21;10.80;67.30
27004;DHT22;14546;47.590;19.022;2024-03-22T19:36:48;10.80;67.30
27004;DHT22;14546;47.590;19.022;2024-03-22T19:39:13;10.70;68.20
27004;DHT22;14546;47.590;19.022;2024-03-22T19:41:39;10.70;67.60
27004;DHT22;14546;47.590;19.022;2024-03-22T19:44:05;10.60;67.60
27004;DHT22;14546;47.590;19.022;2024-03-22T19:46:36;10.60;67.80
27004;DHT22;14546;47.590;19.022;2024-03-22T19:49:02;10.50;67.90
27004;DHT22;14546;47.590;19.022;2024-03-22T19:51:29;10.40;68.00
27004;DHT22;14546;47.590;19.022;2024-03-22T19:53:55;10.40;68.20
27004;DHT22;14546;47.590;19.022;2024-03-22T19:56:21;10.30;68.40
27004;DHT22;14546;47.590;19.022;2024-03-22T19:58:47;10.30;68.60
27004;DHT22;14546;47.590;19.022;2024-03-22T20:01:14;10.20;68.70
27004;DHT22;14546;47.590;19.022;2024-03-22T20:03:41;10.10;68.80
27004;DHT22;14546;47.590;19.022;2024-03-22T20:06:07;10.10;68.90
27004;DHT22;14546;47.590;19.022;2024-03-22T20:08:33;10.10;69.00
27004;DHT22;14546;47.590;19.022;2024-03-22T20:11:00;10.00;69.10
27004;DHT22;14546;47.590;19.022;2024-03-22T20:13:27;10.00;69.30
27004;DHT22;14546;47.590;19.022;2024-03-22T20:15:53;9.90;69.40
27004;DHT22;14546;47.590;19.022;2024-03-22T20:18:19;9.90;69.60
27004;DHT22;14546;47.590;19.022;2024-03-22T20:20:46;9.90;69.70
27004;DHT22;14546;47.590;19.022;2024-03-22T20:23:14;9.80;69.80
27004;DHT22;14546;47.590;19.022;2024-03-22T20:25:40;9.70;70.00
27004;DHT22;14546;47.590;19.022;2024-03-22T20:28:06;9.70;70.20
27004;DHT22;14546;47.590;19.022;2024-03-22T20:30:33;9.70;70.40
27004;DHT22;14546;47.590;19.022;2024-03-22T20:32:59;9.60;70.40
27004;DHT22;14546;47.590;19.022;2024-03-22T20:35:25;9.60;70.60
